createdAt,value
2023-03-31T00:01:00.689Z,97428.25
2023-03-31T00:03:27.856Z,97431.31
2023-03-31T00:05:58.955Z,97450.28
2023-03-31T00:08:30.539Z,97439.44
2023-03-31T00:11:06.117Z,97432.88
2023-03-31T00:13:33.091Z,97432.47
2023-03-31T00:16:04.019Z,97407.72
2023-03-31T00:18:31.543Z,97406.56
2023-03-31T00:21:24.961Z,97436.31
2023-03-31T00:23:55.579Z,97433.19
2023-03-31T00:26:23.161Z,97435.13
2023-03-31T00:28:50.452Z,97436.66
2023-03-31T00:31:17.910Z,97426.97
2023-03-31T00:33:44.496Z,97416.16
2023-03-31T00:36:12.827Z,97408.06
2023-03-31T00:38:39.459Z,97396.06
2023-03-31T00:41:06.668Z,97399.91
2023-03-31T00:43:38.677Z,97374.06
2023-03-31T00:46:35.764Z,97368.22
2023-03-31T00:49:04.582Z,97343.84
2023-03-31T00:51:34.700Z,97343.47
2023-03-31T00:54:07.886Z,97352.34
2023-03-31T00:56:39.961Z,97353.47
2023-03-31T00:59:11.232Z,97347.66
2023-03-31T01:01:43.064Z,97351.13
2023-03-31T01:04:14.384Z,97356.53
2023-03-31T01:06:50.385Z,97345.69
2023-03-31T01:09:19.423Z,97336.44
2023-03-31T01:11:47.930Z,97317.53
2023-03-31T01:14:14.796Z,97319.44
2023-03-31T01:16:43.491Z,97327.97
2023-03-31T01:19:20.883Z,97327.22
2023-03-31T01:21:53.982Z,97326.44
2023-03-31T01:24:49.968Z,97317.16
2023-03-31T01:27:56.310Z,97313.34
2023-03-31T01:30:56.821Z,97302.13
2023-03-31T01:33:37.443Z,97305.59
2023-03-31T01:36:10.010Z,97302.50
2023-03-31T01:38:50.514Z,97298.63
2023-03-31T01:41:26.333Z,97292.44
2023-03-31T01:44:06.831Z,97294.78
2023-03-31T01:46:48.360Z,97280.47
2023-03-31T01:49:30.189Z,97273.91
2023-03-31T01:52:24.225Z,97265.38
2023-03-31T01:55:03.625Z,97262.31
2023-03-31T01:57:41.646Z,97259.22
2023-03-31T02:00:13.237Z,97247.63
2023-03-31T02:02:50.409Z,97248.38
2023-03-31T02:05:22.757Z,97228.31
2023-03-31T02:07:58.863Z,97207.47
2023-03-31T02:10:38.181Z,97189.34
2023-03-31T02:13:08.070Z,97171.19
2023-03-31T02:15:44.632Z,97158.84
2023-03-31T02:18:17.358Z,97156.16
2023-03-31T02:20:52.238Z,97161.94
2023-03-31T02:23:23.742Z,97158.06
2023-03-31T02:26:05.860Z,97143.00
2023-03-31T02:28:33.424Z,97127.19
2023-03-31T02:31:21.630Z,97134.13
2023-03-31T02:33:49.122Z,97127.19
2023-03-31T02:36:16.154Z,97117.56
2023-03-31T02:39:01.158Z,97091.34
2023-03-31T02:41:27.761Z,97088.63
2023-03-31T02:43:54.357Z,97082.06
2023-03-31T02:46:21.451Z,97086.31
2023-03-31T02:48:55.608Z,97060.84
2023-03-31T02:51:41.612Z,97059.31
2023-03-31T02:54:46.590Z,97053.53
2023-03-31T02:57:37.677Z,97053.91
2023-03-31T03:00:21.458Z,97038.06
2023-03-31T03:03:16.196Z,97018.00
2023-03-31T03:06:17.933Z,97016.09
2023-03-31T03:09:22.859Z,97004.50
2023-03-31T03:12:36.749Z,96999.13
2023-03-31T03:15:13.926Z,96994.09
2023-03-31T03:17:46.869Z,96991.41
2023-03-31T03:20:21.496Z,96975.22
2023-03-31T03:22:51.516Z,96960.94
2023-03-31T03:25:20.430Z,96938.59
2023-03-31T03:27:49.048Z,96924.31
2023-03-31T03:30:15.773Z,96919.69
2023-03-31T03:32:42.959Z,96908.09
2023-03-31T03:35:12.455Z,96891.88
2023-03-31T03:37:39.103Z,96887.25
2023-03-31T03:40:06.476Z,96873.72
2023-03-31T03:42:40.259Z,96857.13
2023-03-31T03:45:07.818Z,96857.06
2023-03-31T03:47:34.402Z,96858.56
2023-03-31T03:50:02.669Z,96866.66
2023-03-31T03:52:29.239Z,96875.06
2023-03-31T03:54:56.004Z,96856.50
2023-03-31T03:57:24.405Z,96850.31
2023-03-31T03:59:50.888Z,96843.28
2023-03-31T04:02:17.398Z,96835.06
2023-03-31T04:04:46.574Z,96827.66
2023-03-31T04:07:13.127Z,96812.91
2023-03-31T04:09:39.734Z,96806.94
2023-03-31T04:12:06.291Z,96797.53
2023-03-31T04:14:32.989Z,96782.06
2023-03-31T04:16:59.490Z,96768.97
2023-03-31T04:19:27.722Z,96766.66
2023-03-31T04:22:02.915Z,96758.94
2023-03-31T04:24:33.302Z,96756.75
2023-03-31T04:27:03.316Z,96739.13
2023-03-31T04:29:35.285Z,96738.47
2023-03-31T04:32:01.921Z,96735.25
2023-03-31T04:34:35.431Z,96756.69
2023-03-31T04:37:04.762Z,96758.88
2023-03-31T04:39:34.838Z,96758.22
2023-03-31T04:42:01.504Z,96748.69
2023-03-31T04:44:30.281Z,96748.84
2023-03-31T04:46:59.096Z,96772.59
2023-03-31T04:49:25.585Z,96769.97
2023-03-31T04:51:52.176Z,96783.63
2023-03-31T04:54:19.114Z,96780.63
2023-03-31T04:56:46.384Z,96769.84
2023-03-31T04:59:14.666Z,96772.25
2023-03-31T05:01:45.801Z,96769.22
2023-03-31T05:04:12.461Z,96777.09
2023-03-31T05:06:39.012Z,96774.06
2023-03-31T05:09:05.507Z,96768.00
2023-03-31T05:11:32.040Z,96768.03
2023-03-31T05:13:58.581Z,96778.22
2023-03-31T05:16:25.139Z,96756.25
2023-03-31T05:18:51.652Z,96750.13
2023-03-31T05:21:21.674Z,96745.91
2023-03-31T05:23:50.361Z,96759.06
2023-03-31T05:26:23.246Z,96758.31
2023-03-31T05:28:49.725Z,96739.69
2023-03-31T05:31:17.107Z,96734.59
2023-03-31T05:33:44.157Z,96725.28
2023-03-31T05:36:14.407Z,96726.34
2023-03-31T05:38:41.342Z,96712.41
2023-03-31T05:41:09.698Z,96728.66
2023-03-31T05:43:37.228Z,96708.94
2023-03-31T05:46:05.140Z,96710.78
2023-03-31T05:48:34.362Z,96723.91
2023-03-31T05:51:01.702Z,96714.63
2023-03-31T05:53:28.390Z,96709.84
2023-03-31T05:56:05.890Z,96717.47
2023-03-31T05:58:37.392Z,96720.44
2023-03-31T06:01:12.538Z,96718.75
2023-03-31T06:03:41.686Z,96733.00
2023-03-31T06:06:09.375Z,96751.22
2023-03-31T06:08:38.061Z,96749.66
2023-03-31T06:11:09.677Z,96746.16
2023-03-31T06:13:37.000Z,96764.31
2023-03-31T06:16:05.447Z,96759.91
2023-03-31T06:18:35.349Z,96758.56
2023-03-31T06:21:02.184Z,96773.16
2023-03-31T06:23:29.108Z,96775.19
2023-03-31T06:26:02.442Z,96852.50
2023-03-31T06:28:29.519Z,96811.38
2023-03-31T06:31:07.760Z,96828.16
2023-03-31T06:33:35.786Z,96817.63
2023-03-31T06:36:05.612Z,96867.19
2023-03-31T06:38:35.314Z,96850.03
2023-03-31T06:41:02.937Z,96854.03
2023-03-31T06:43:29.964Z,96859.53
2023-03-31T06:45:57.164Z,96852.31
2023-03-31T06:48:25.375Z,96883.00
2023-03-31T06:50:54.441Z,96858.31
2023-03-31T06:53:24.359Z,96851.00
2023-03-31T06:55:51.365Z,96857.66
2023-03-31T06:58:18.356Z,96870.88
2023-03-31T07:00:48.027Z,96855.47
2023-03-31T07:03:17.038Z,96862.88
2023-03-31T07:05:48.616Z,96869.09
2023-03-31T07:08:20.339Z,96861.69
2023-03-31T07:10:48.637Z,96864.75
2023-03-31T07:13:18.535Z,96869.38
2023-03-31T07:15:48.485Z,96876.94
2023-03-31T07:18:16.127Z,96871.59
2023-03-31T07:20:43.808Z,96868.03
2023-03-31T07:23:16.984Z,96881.81
2023-03-31T07:25:43.526Z,96890.75
2023-03-31T07:28:10.293Z,96883.81
2023-03-31T07:30:37.063Z,96883.41
2023-03-31T07:33:03.944Z,96899.34
2023-03-31T07:35:30.723Z,96865.00
2023-03-31T07:37:59.821Z,96897.56
2023-03-31T07:40:28.609Z,96881.59
2023-03-31T07:42:57.115Z,96892.78
2023-03-31T07:45:30.059Z,96881.84
2023-03-31T07:47:56.665Z,96880.56
2023-03-31T07:50:23.739Z,96872.19
2023-03-31T07:52:51.602Z,96867.47
2023-03-31T07:55:20.064Z,96858.28
2023-03-31T07:57:47.638Z,96860.03
2023-03-31T08:00:18.062Z,96870.66
2023-03-31T08:02:47.051Z,96884.13
2023-03-31T08:05:16.489Z,96883.31
2023-03-31T08:07:46.563Z,96890.38
2023-03-31T08:10:17.481Z,96883.72
2023-03-31T08:12:44.416Z,96877.34
2023-03-31T08:15:11.583Z,96894.75
2023-03-31T08:17:40.488Z,96899.84
2023-03-31T08:20:08.563Z,96888.16
2023-03-31T08:22:35.555Z,96877.41
2023-03-31T08:25:04.421Z,96881.06
2023-03-31T08:27:37.829Z,96875.41
2023-03-31T08:30:06.873Z,96863.47
2023-03-31T08:32:34.464Z,96856.88
2023-03-31T08:35:01.544Z,96855.13
2023-03-31T08:37:28.528Z,96857.41
2023-03-31T08:39:57.342Z,96850.09
2023-03-31T08:42:54.698Z,96852.63
2023-03-31T08:45:27.803Z,96850.50
2023-03-31T08:48:07.049Z,96843.66
2023-03-31T08:50:38.432Z,96857.69
2023-03-31T08:53:26.934Z,96846.16
2023-03-31T08:55:57.066Z,96850.38
2023-03-31T08:58:32.601Z,96875.63
2023-03-31T09:01:07.013Z,96866.44
2023-03-31T09:04:11.728Z,96873.50
2023-03-31T09:07:13.428Z,96863.47
2023-03-31T09:10:12.001Z,96863.84
2023-03-31T09:12:57.049Z,96858.03
2023-03-31T09:15:34.687Z,96843.31
2023-03-31T09:18:13.850Z,96862.31
2023-03-31T09:20:46.700Z,96872.44
2023-03-31T09:23:13.229Z,96873.91
2023-03-31T09:25:41.607Z,96873.19
2023-03-31T09:28:22.951Z,96879.53
2023-03-31T09:30:49.967Z,96868.78
2023-03-31T09:33:27.538Z,96865.97
2023-03-31T09:35:54.277Z,96851.22
2023-03-31T09:38:20.795Z,96855.28
2023-03-31T09:40:49.620Z,96845.94
2023-03-31T09:43:22.759Z,96840.22
2023-03-31T09:48:39.757Z,96833.81
2023-03-31T09:51:20.807Z,96840.66
2023-03-31T09:54:15.726Z,96832.88
2023-03-31T09:56:44.460Z,96816.47
2023-03-31T09:59:23.383Z,96817.56
2023-03-31T10:01:53.672Z,96811.69
2023-03-31T10:04:24.358Z,96803.72
2023-03-31T10:06:55.205Z,96788.06
2023-03-31T10:09:26.633Z,96785.69
2023-03-31T10:11:58.505Z,96783.59
2023-03-31T10:14:28.235Z,96785.97
2023-03-31T10:17:03.816Z,96761.19
2023-03-31T10:19:37.767Z,96757.63
2023-03-31T10:22:16.438Z,96751.34
2023-03-31T10:24:45.429Z,96738.59
2023-03-31T10:27:32.542Z,96736.31
2023-03-31T10:30:02.010Z,96715.16
2023-03-31T10:32:54.955Z,96723.75
2023-03-31T10:35:26.692Z,96714.50
2023-03-31T10:37:59.694Z,96710.25
2023-03-31T10:40:29.344Z,96726.59
2023-03-31T10:43:16.161Z,96712.44
2023-03-31T10:45:56.426Z,96697.69
2023-03-31T10:48:30.790Z,96682.50
2023-03-31T10:51:04.216Z,96682.41
2023-03-31T10:53:43.498Z,96681.41
2023-03-31T10:56:18.227Z,96679.50
2023-03-31T10:59:04.709Z,96684.22
2023-03-31T11:02:03.172Z,96680.91
2023-03-31T11:05:08.699Z,96676.31
2023-03-31T11:07:50.654Z,96665.25
2023-03-31T11:10:49.422Z,96696.06
2023-03-31T11:13:26.652Z,96692.34
2023-03-31T11:16:37.573Z,96670.25
2023-03-31T11:19:04.164Z,96662.09
2023-03-31T11:21:52.653Z,96660.47
2023-03-31T11:24:48.447Z,96664.19
2023-03-31T11:27:39.673Z,96684.69
2023-03-31T11:30:28.842Z,96679.94
2023-03-31T11:33:31.756Z,96684.94
2023-03-31T11:36:12.723Z,96694.47
2023-03-31T11:38:48.133Z,96700.75
2023-03-31T11:41:19.793Z,96721.69
2023-03-31T11:43:55.339Z,96736.53
2023-03-31T11:46:52.094Z,96766.06
2023-03-31T11:49:32.110Z,96798.94
2023-03-31T11:52:03.116Z,96868.94
2023-03-31T11:54:40.472Z,96904.34
2023-03-31T11:57:18.839Z,96879.88
2023-03-31T11:59:58.880Z,96876.25
2023-03-31T12:02:51.684Z,96835.88
2023-03-31T12:05:21.041Z,96840.28
2023-03-31T12:07:54.998Z,96832.91
2023-03-31T12:10:30.146Z,96810.16
2023-03-31T12:13:35.128Z,96812.41
2023-03-31T12:16:28.828Z,96806.91
2023-03-31T12:19:06.233Z,96798.31
2023-03-31T12:21:38.438Z,96791.69
2023-03-31T12:24:08.812Z,96793.56
2023-03-31T12:26:59.125Z,96791.44
2023-03-31T12:29:33.355Z,96775.00
2023-03-31T12:32:05.891Z,96758.13
2023-03-31T12:34:37.013Z,96752.59
2023-03-31T12:37:48.196Z,96744.97
2023-03-31T12:40:42.162Z,96736.41
2023-03-31T12:43:26.028Z,96714.31
2023-03-31T12:46:18.001Z,96714.06
2023-03-31T12:48:52.817Z,96710.50
2023-03-31T12:51:53.668Z,96708.50
2023-03-31T12:54:53.066Z,96695.16
2023-03-31T12:57:22.157Z,96688.44
2023-03-31T13:00:12.761Z,96668.19
2023-03-31T13:02:41.193Z,96664.06
2023-03-31T13:05:51.368Z,96669.78
2023-03-31T13:08:56.161Z,96679.66
2023-03-31T13:11:47.905Z,96668.13
2023-03-31T13:14:22.096Z,96668.50
2023-03-31T13:16:51.653Z,96660.13
2023-03-31T13:19:34.765Z,96643.97
2023-03-31T13:22:06.466Z,96646.84
2023-03-31T13:24:34.675Z,96638.25
2023-03-31T13:27:39.801Z,96647.59
2023-03-31T13:30:41.523Z,96644.56
2023-03-31T13:33:16.990Z,96635.97
2023-03-31T13:35:48.148Z,96623.66
2023-03-31T13:38:36.567Z,96610.47
2023-03-31T13:41:11.101Z,96602.22
2023-03-31T13:43:59.935Z,96591.31
2023-03-31T13:46:36.648Z,96595.91
2023-03-31T13:49:24.634Z,96598.81
2023-03-31T13:52:03.275Z,96599.25
2023-03-31T13:55:01.522Z,96624.59
2023-03-31T13:57:44.142Z,96640.66
2023-03-31T14:00:27.733Z,96645.53
2023-03-31T14:03:22.980Z,96650.41
2023-03-31T14:06:08.612Z,96647.72
2023-03-31T14:08:57.800Z,96670.56
2023-03-31T14:11:28.519Z,96794.56
2023-03-31T14:14:18.251Z,96839.81
2023-03-31T14:16:48.674Z,96834.50
2023-03-31T14:19:58.353Z,96831.34
2023-03-31T14:22:58.497Z,96829.28
2023-03-31T14:25:45.928Z,96824.81
2023-03-31T14:28:21.323Z,96824.47
2023-03-31T14:30:52.697Z,96820.28
2023-03-31T14:33:53.553Z,96789.06
2023-03-31T14:36:46.872Z,96760.13
2023-03-31T14:39:21.477Z,96739.34
2023-03-31T14:41:55.606Z,96748.63
2023-03-31T14:44:29.333Z,96748.97
2023-03-31T14:46:58.815Z,96746.66
2023-03-31T14:49:36.736Z,96733.09
2023-03-31T14:52:18.621Z,96736.88
2023-03-31T14:54:49.911Z,96739.88
2023-03-31T14:57:21.618Z,96744.84
2023-03-31T14:59:55.893Z,96735.19
2023-03-31T15:02:37.260Z,96742.50
2023-03-31T15:05:23.388Z,96756.41
2023-03-31T15:07:50.027Z,96774.91
2023-03-31T15:10:21.005Z,96796.13
2023-03-31T15:12:51.640Z,96814.66
2023-03-31T15:15:22.293Z,96832.03
2023-03-31T15:17:48.994Z,96816.25
2023-03-31T15:20:28.967Z,96807.38
2023-03-31T15:22:59.884Z,96787.75
2023-03-31T15:25:34.585Z,96763.84
2023-03-31T15:28:06.058Z,96756.22
2023-03-31T15:30:34.183Z,96760.06
2023-03-31T15:33:18.874Z,96746.97
2023-03-31T15:35:46.507Z,96740.06
2023-03-31T15:38:18.870Z,96725.75
2023-03-31T15:40:51.946Z,96729.97
2023-03-31T15:43:32.354Z,96736.13
2023-03-31T15:46:00.584Z,96727.69
2023-03-31T15:48:37.784Z,96733.84
2023-03-31T15:51:19.214Z,96738.06
2023-03-31T15:53:48.805Z,96740.34
2023-03-31T15:56:34.839Z,96740.34
2023-03-31T15:59:25.240Z,96746.16
2023-03-31T16:01:56.799Z,96741.09
2023-03-31T16:04:34.937Z,96762.66
2023-03-31T16:07:15.797Z,96757.28
2023-03-31T16:10:20.563Z,96754.53
2023-03-31T16:12:56.273Z,96754.94
2023-03-31T16:15:32.578Z,96747.94
2023-03-31T16:18:05.005Z,96752.94
2023-03-31T16:20:44.770Z,96759.06
2023-03-31T16:23:23.386Z,96752.06
2023-03-31T16:25:54.870Z,96759.75
2023-03-31T16:31:35.934Z,96752.38
2023-03-31T16:34:08.925Z,96748.06
2023-03-31T16:36:38.340Z,96741.06
2023-03-31T16:39:06.835Z,96742.56
2023-03-31T16:41:34.616Z,96744.06
2023-03-31T16:44:06.935Z,96751.72
2023-03-31T16:46:33.865Z,96757.88
2023-03-31T16:49:00.960Z,96750.91
2023-03-31T16:51:29.586Z,96751.69
2023-03-31T16:53:58.897Z,96745.50
2023-03-31T16:56:31.737Z,96748.56
2023-03-31T16:58:58.898Z,96756.31
2023-03-31T17:01:29.243Z,96747.00
2023-03-31T17:03:58.222Z,96752.06
2023-03-31T17:06:24.689Z,96747.06
2023-03-31T17:08:51.125Z,96739.34
2023-03-31T17:11:18.028Z,96733.88
2023-03-31T17:13:44.988Z,96723.06
2023-03-31T17:18:43.834Z,96727.31
2023-03-31T17:21:19.392Z,96738.91
2023-03-31T17:23:46.967Z,96736.97
2023-03-31T17:26:18.448Z,96741.59
2023-03-31T17:28:45.469Z,96752.41
2023-03-31T17:31:13.472Z,96740.09
2023-03-31T17:33:40.330Z,96736.25
2023-03-31T17:36:10.840Z,96750.91
2023-03-31T17:38:41.417Z,96768.75
2023-03-31T17:41:10.836Z,96803.50
2023-03-31T17:43:38.033Z,96800.44
2023-03-31T17:46:14.471Z,96804.00
2023-03-31T17:48:41.918Z,96807.19
2023-03-31T17:51:12.088Z,96805.34
2023-03-31T17:53:41.508Z,96797.28
2023-03-31T17:56:08.951Z,96798.47
2023-03-31T17:58:35.473Z,96796.97
2023-03-31T18:01:08.819Z,96796.22
2023-03-31T18:03:37.413Z,96797.03
2023-03-31T18:06:12.795Z,96796.28
2023-03-31T18:08:40.664Z,96801.31
2023-03-31T18:11:09.873Z,96795.53
2023-03-31T18:13:39.501Z,96798.66
2023-03-31T18:16:09.571Z,96797.91
2023-03-31T18:18:37.889Z,96802.53
2023-03-31T18:21:08.374Z,96803.34
2023-03-31T18:23:35.860Z,96810.25
2023-03-31T18:26:05.664Z,96808.72
2023-03-31T18:28:32.566Z,96814.09
2023-03-31T18:31:03.473Z,96803.69
2023-03-31T18:33:30.133Z,96799.84
2023-03-31T18:36:03.622Z,96797.53
2023-03-31T18:38:30.297Z,96787.91
2023-03-31T18:40:56.987Z,96806.41
2023-03-31T18:43:24.802Z,96795.63
2023-03-31T18:45:53.753Z,96805.66
2023-03-31T18:48:22.251Z,96814.47
2023-03-31T18:50:59.968Z,96824.91
2023-03-31T18:53:26.732Z,96815.63
2023-03-31T18:55:55.931Z,96802.16
2023-03-31T18:58:24.276Z,96817.56
2023-03-31T19:00:51.080Z,96819.50
2023-03-31T19:03:17.992Z,96824.88
2023-03-31T19:05:46.245Z,96831.06
2023-03-31T19:08:12.876Z,96840.28
2023-03-31T19:10:39.817Z,96835.69
2023-03-31T19:13:09.516Z,96840.28
2023-03-31T19:15:37.687Z,96842.66
2023-03-31T19:18:12.303Z,96837.63
2023-03-31T19:20:39.103Z,96831.84
2023-03-31T19:23:05.723Z,96827.97
2023-03-31T19:25:34.465Z,96836.84
2023-03-31T19:28:00.945Z,96835.28
2023-03-31T19:30:28.307Z,96822.94
2023-03-31T19:32:55.179Z,96839.53
2023-03-31T19:35:22.747Z,96821.00
2023-03-31T19:37:49.842Z,96824.47
2023-03-31T19:40:16.664Z,96839.50
2023-03-31T19:42:44.342Z,96832.94
2023-03-31T19:45:11.310Z,96833.69
2023-03-31T19:47:37.966Z,96838.34
2023-03-31T19:50:04.936Z,96842.56
2023-03-31T19:52:31.396Z,96848.34
2023-03-31T19:54:59.629Z,96848.75
2023-03-31T19:57:26.754Z,96839.88
2023-03-31T19:59:53.384Z,96834.06
2023-03-31T20:02:21.814Z,96839.84
2023-03-31T20:04:48.501Z,96830.97
2023-03-31T20:07:15.026Z,96827.88
2023-03-31T20:09:44.122Z,96828.28
2023-03-31T20:12:10.965Z,96834.84
2023-03-31T20:14:38.575Z,96821.34
2023-03-31T20:17:07.627Z,96827.91
2023-03-31T20:19:35.063Z,96820.56
2023-03-31T20:22:02.139Z,96817.06
2023-03-31T20:24:29.536Z,96816.31
2023-03-31T20:27:00.407Z,96827.47
2023-03-31T20:29:27.269Z,96830.56
2023-03-31T20:31:54.078Z,96840.56
2023-03-31T20:34:22.615Z,96835.56
2023-03-31T20:36:51.570Z,96838.63
2023-03-31T20:39:25.921Z,96840.94
2023-03-31T20:41:52.784Z,96847.09
2023-03-31T20:44:19.483Z,96838.59
2023-03-31T20:46:46.809Z,96835.50
2023-03-31T20:49:14.054Z,96837.44
2023-03-31T20:51:41.715Z,96837.03
2023-03-31T20:54:13.829Z,96855.94
2023-03-31T20:56:41.670Z,96856.69
2023-03-31T20:59:11.463Z,96844.34
2023-03-31T21:01:39.140Z,96864.00
2023-03-31T21:04:07.242Z,96864.41
2023-03-31T21:06:42.057Z,96864.81
2023-03-31T21:09:08.874Z,96856.31
2023-03-31T21:11:35.538Z,96850.50
2023-03-31T21:14:02.423Z,96866.72
2023-03-31T21:16:29.074Z,96868.63
2023-03-31T21:19:00.609Z,96864.38
2023-03-31T21:21:29.835Z,96865.53
2023-03-31T21:23:56.646Z,96865.88
2023-03-31T21:26:24.933Z,96863.56
2023-03-31T21:28:57.902Z,96867.03
2023-03-31T21:31:25.868Z,96862.78
2023-03-31T21:33:53.601Z,96866.66
2023-03-31T21:36:24.227Z,96864.34
2023-03-31T21:38:53.559Z,96861.63
2023-03-31T21:41:27.715Z,96861.28
2023-03-31T21:43:55.672Z,96854.69
2023-03-31T21:46:26.963Z,96855.88
2023-03-31T21:48:56.141Z,96863.59
2023-03-31T21:51:23.646Z,96856.63
2023-03-31T21:53:53.187Z,96859.72
2023-03-31T21:56:25.303Z,96862.81
2023-03-31T21:58:51.970Z,96856.63
2023-03-31T22:01:19.303Z,96865.50
2023-03-31T22:03:48.594Z,96862.38
2023-03-31T22:06:15.624Z,96863.94
2023-03-31T22:08:42.193Z,96867.00
2023-03-31T22:11:11.101Z,96865.47
2023-03-31T22:13:38.659Z,96857.34
2023-03-31T22:16:16.418Z,96856.19
2023-03-31T22:18:42.988Z,96841.13
2023-03-31T22:21:37.307Z,96852.75
2023-03-31T22:24:03.918Z,96851.97
2023-03-31T22:26:31.290Z,96863.19
2023-03-31T22:28:58.544Z,96855.06
2023-03-31T22:31:26.306Z,96866.25
2023-03-31T22:33:53.232Z,96856.22
2023-03-31T22:36:25.111Z,96857.38
2023-03-31T22:38:51.597Z,96856.63
2023-03-31T22:41:18.177Z,96846.63
2023-03-31T22:43:46.517Z,96848.53
2023-03-31T22:46:13.537Z,96852.41
2023-03-31T22:48:40.523Z,96861.66
2023-03-31T22:51:10.211Z,96869.41
2023-03-31T22:53:39.023Z,96912.28
2023-03-31T22:56:08.175Z,96925.09
2023-03-31T22:58:35.029Z,96928.94
2023-03-31T23:01:02.158Z,96937.78
2023-03-31T23:03:30.677Z,96941.94
2023-03-31T23:06:03.470Z,96958.09
2023-03-31T23:08:31.714Z,96942.22
2023-03-31T23:10:59.502Z,96954.13
2023-03-31T23:13:27.175Z,96961.41
2023-03-31T23:16:00.465Z,96959.44
2023-03-31T23:18:29.587Z,96957.84
2023-03-31T23:20:56.170Z,96969.31
2023-03-31T23:23:22.961Z,96967.38
2023-03-31T23:25:49.488Z,96967.28
2023-03-31T23:28:16.778Z,96968.41
2023-03-31T23:30:53.765Z,96969.88
2023-03-31T23:33:20.741Z,96971.00
2023-03-31T23:35:47.283Z,96974.78
2023-03-31T23:38:15.594Z,96959.34
2023-03-31T23:40:46.481Z,96959.31
2023-03-31T23:43:13.666Z,96953.16
2023-03-31T23:45:40.810Z,96943.13
2023-03-31T23:48:07.498Z,96938.91
2023-03-31T23:50:34.429Z,96939.25
2023-03-31T23:53:02.157Z,96929.22
2023-03-31T23:55:29.443Z,96915.38
2023-03-31T23:57:57.554Z,96924.16
